Time;durP1;ratioP1;P1;durP2;ratioP2;P2;SDS_P1;SDS_P2;PMS_P1;PMS_P2;Temp;Humidity;BMP_temperature;BMP_pressure;BME280_temperature;BME280_humidity;BME280_pressure;Samples;Min_cycle;Max_cycle;Signal;HPM_P1;HPM_P2
2021/12/31 00:02:10;;;;;;;264.12;117.55;;;;;;;2.22;78.03;94612.78;1673564;84;21020;-49
2021/12/31 00:04:37;;;;;;;260.25;108.95;;;;;;;2.14;77.82;94620.19;1683925;83;21162;-49
2021/12/31 00:07:04;;;;;;;192.95;88.33;;;;;;;2.10;78.08;94625.47;1697461;83;20969;-49
2021/12/31 00:09:31;;;;;;;197.60;96.55;;;;;;;2.13;78.04;94607.03;1699105;83;22368;-49
2021/12/31 00:11:59;;;;;;;180.60;85.42;;;;;;;2.11;78.02;94601.23;1685881;83;20961;-50
2021/12/31 00:14:25;;;;;;;196.90;93.55;;;;;;;2.13;78.22;94623.31;1698677;83;21043;-48
2021/12/31 00:16:52;;;;;;;182.25;82.45;;;;;;;2.15;78.42;94614.19;1703302;83;21012;-50
2021/12/31 00:19:22;;;;;;;181.65;79.27;;;;;;;2.15;78.38;94614.19;1679974;83;21560;-49
2021/12/31 00:21:51;;;;;;;249.62;105.87;;;;;;;2.22;78.72;94623.63;1687929;83;21902;-49
2021/12/31 00:24:19;;;;;;;280.30;109.10;;;;;;;2.25;78.61;94626.33;1689558;83;21575;-50
2021/12/31 00:26:46;;;;;;;246.03;117.08;;;;;;;2.31;78.46;94636.20;1693305;83;21100;-50
2021/12/31 00:29:12;;;;;;;224.67;113.37;;;;;;;2.29;77.99;94620.89;1694845;83;20948;-49
2021/12/31 00:31:42;;;;;;;274.75;130.67;;;;;;;2.27;78.35;94628.64;1711743;83;21071;-49
2021/12/31 00:34:09;;;;;;;290.05;133.10;;;;;;;2.39;78.53;94628.18;1677713;83;22237;-49
2021/12/31 00:36:46;;;;;;;283.57;124.95;;;;;;;2.50;78.25;94618.03;1684195;83;21166;-48
2021/12/31 00:39:15;;;;;;;236.57;114.03;;;;;;;2.60;77.98;94613.09;1693533;83;21158;-49
2021/12/31 00:41:42;;;;;;;216.27;99.72;;;;;;;2.65;77.37;94616.77;1694457;83;21000;-49
2021/12/31 00:44:11;;;;;;;201.25;99.50;;;;;;;2.66;77.39;94610.92;1671530;83;21007;-49
2021/12/31 00:46:38;;;;;;;173.53;86.12;;;;;;;2.67;77.37;94608.39;1714399;82;21126;-50
2021/12/31 00:49:05;;;;;;;174.47;80.62;;;;;;;2.68;77.28;94614.61;1727512;82;21188;-49
2021/12/31 00:51:34;;;;;;;154.65;78.67;;;;;;;2.66;77.17;94608.80;1714880;82;20946;-48
2021/12/31 00:54:00;;;;;;;137.20;72.82;;;;;;;2.63;77.47;94616.37;1719541;82;21493;-50
2021/12/31 00:56:27;;;;;;;135.07;69.35;;;;;;;2.66;77.75;94607.45;1719177;83;21051;-51
2021/12/31 00:58:54;;;;;;;121.80;57.25;;;;;;;2.73;77.76;94611.45;1678136;83;21853;-49
2021/12/31 01:01:25;;;;;;;109.65;52.98;;;;;;;2.81;77.85;94593.91;1703602;83;20951;-53
2021/12/31 01:03:51;;;;;;;131.57;63.13;;;;;;;2.89;77.80;94602.95;1702523;83;21446;-51
2021/12/31 01:06:18;;;;;;;122.30;58.42;;;;;;;2.95;77.57;94593.22;1704443;83;21010;-48
2021/12/31 01:08:45;;;;;;;274.52;109.10;;;;;;;2.92;77.34;94600.03;1690964;83;21047;-49
2021/12/31 01:11:12;;;;;;;219.70;103.53;;;;;;;2.85;77.28;94604.94;1708355;83;21946;-50
2021/12/31 01:13:59;;;;;;;224.62;107.37;;;;;;;2.79;77.00;94589.47;1680294;83;21108;-49
2021/12/31 01:16:33;;;;;;;230.85;105.47;;;;;;;2.66;77.24;94592.52;1684951;83;21005;-50
2021/12/31 01:21:24;;;;;;;232.92;98.05;;;;;;;2.80;77.56;94600.52;1702468;83;21013;-49
2021/12/31 01:23:51;;;;;;;228.30;97.15;;;;;;;2.85;77.47;94603.58;1701179;83;21795;-50
2021/12/31 01:26:18;;;;;;;198.43;89.90;;;;;;;2.87;77.28;94601.23;1693879;83;21052;-49
2021/12/31 01:28:45;;;;;;;174.00;82.50;;;;;;;2.92;77.50;94598.67;1705021;83;21531;-48
2021/12/31 01:31:12;;;;;;;136.00;67.90;;;;;;;3.00;77.40;94609.08;1680243;83;21115;-49
2021/12/31 01:33:38;;;;;;;127.97;63.10;;;;;;;3.04;77.40;94588.67;1677012;83;21637;-49
2021/12/31 01:36:07;;;;;;;123.80;60.48;;;;;;;3.05;77.48;94584.78;1640306;84;21042;-49
2021/12/31 01:38:35;;;;;;;109.03;53.25;;;;;;;3.03;77.54;94581.10;1683944;83;20980;-49
2021/12/31 01:41:03;;;;;;;96.72;51.63;;;;;;;3.04;77.75;94589.44;1692483;83;21002;-49
2021/12/31 01:43:30;;;;;;;76.55;41.80;;;;;;;3.09;78.24;94584.16;1679440;83;21449;-49
2021/12/31 01:46:01;;;;;;;238.22;96.22;;;;;;;3.15;78.37;94577.09;1629957;86;21119;-50
2021/12/31 01:48:47;;;;;;;191.80;87.33;;;;;;;3.18;78.35;94580.36;1614503;88;21504;-49
2021/12/31 01:51:05;;;;;;;187.88;91.90;;;;;;;3.17;77.99;94576.11;1603994;88;20999;-51
2021/12/31 01:53:32;;;;;;;182.12;85.62;;;;;;;3.10;77.82;94576.19;1612419;88;20996;-50
2021/12/31 01:56:01;;;;;;;176.15;83.12;;;;;;;3.07;78.01;94566.89;1586794;88;21072;-50
2021/12/31 01:58:28;;;;;;;190.28;91.80;;;;;;;3.13;77.89;94574.02;1618188;87;21354;-49
2021/12/31 02:01:03;;;;;;;180.67;85.80;;;;;;;3.22;78.23;94577.05;1648296;86;21109;-50
2021/12/31 02:03:26;;;;;;;171.80;80.62;;;;;;;3.23;77.81;94573.91;1639950;86;21072;-48
2021/12/31 02:05:58;;;;;;;158.68;72.97;;;;;;;3.25;78.10;94578.95;1654755;86;20989;-48
2021/12/31 02:08:30;;;;;;;149.42;71.22;;;;;;;3.29;77.80;94583.75;1654129;86;21119;-49
2021/12/31 02:10:57;;;;;;;218.73;120.83;;;;;;;3.24;78.12;94573.33;1652451;86;21563;-49
2021/12/31 02:13:29;;;;;;;176.85;99.50;;;;;;;3.32;78.33;94579.66;1654340;86;21158;-48
2021/12/31 02:15:57;;;;;;;164.85;76.45;;;;;;;3.42;78.08;94582.07;1650216;86;21644;-49
2021/12/31 02:18:23;;;;;;;149.32;64.95;;;;;;;3.47;78.25;94587.84;1628561;87;21074;-50
2021/12/31 02:20:50;;;;;;;104.47;45.75;;;;;;;3.51;77.80;94582.52;1629020;87;20989;-51
2021/12/31 02:23:23;;;;;;;86.10;36.38;;;;;;;3.51;77.81;94585.24;1649174;87;21568;-49
2021/12/31 02:25:48;;;;;;;75.00;34.67;;;;;;;3.49;78.37;94580.05;1650143;86;21334;-48
2021/12/31 02:28:16;;;;;;;73.37;32.95;;;;;;;3.55;78.41;94589.29;1628585;87;21049;-49
2021/12/31 02:30:46;;;;;;;83.25;37.90;;;;;;;3.54;78.60;94587.75;1628795;87;21136;-49
2021/12/31 02:33:15;;;;;;;96.72;39.25;;;;;;;3.58;78.82;94580.31;1649283;86;20978;-49
2021/12/31 02:35:42;;;;;;;93.17;39.92;;;;;;;3.60;79.15;94569.22;1649285;86;20974;-49
2021/12/31 02:38:08;;;;;;;74.03;33.42;;;;;;;3.62;79.04;94571.52;1648892;86;21816;-50
2021/12/31 02:40:35;;;;;;;48.10;21.60;;;;;;;3.63;79.38;94566.26;1649369;87;21117;-50
2021/12/31 02:43:04;;;;;;;38.38;19.65;;;;;;;3.70;79.55;94563.47;1649509;87;20969;-49
2021/12/31 02:45:36;;;;;;;50.75;20.43;;;;;;;3.77;79.38;94549.77;1638800;85;21014;-48
2021/12/31 02:48:03;;;;;;;61.20;25.55;;;;;;;3.82;79.11;94560.97;1669441;84;21023;-49
2021/12/31 02:50:34;;;;;;;119.15;43.08;;;;;;;3.87;79.19;94556.43;1667572;86;21346;-48
2021/12/31 02:53:14;;;;;;;132.35;49.70;;;;;;;3.94;79.04;94559.66;1657910;86;20960;-48
2021/12/31 02:55:42;;;;;;;95.20;40.90;;;;;;;4.01;79.31;94560.33;1667830;86;21424;-48
2021/12/31 02:58:10;;;;;;;68.35;38.67;;;;;;;4.10;78.96;94557.89;1646104;86;21084;-51
2021/12/31 03:00:40;;;;;;;77.05;37.33;;;;;;;4.18;78.76;94560.67;1644018;85;21074;-50
2021/12/31 03:03:07;;;;;;;67.40;33.55;;;;;;;4.20;78.44;94555.59;1681829;85;21154;-49
2021/12/31 03:05:35;;;;;;;53.50;29.57;;;;;;;4.19;78.16;94554.05;1677563;84;21002;-48
2021/12/31 03:08:04;;;;;;;50.17;27.30;;;;;;;4.20;78.24;94553.47;1677032;85;20975;-50
2021/12/31 03:10:32;;;;;;;41.92;24.70;;;;;;;4.24;78.10;94553.58;1669134;84;20984;-50
2021/12/31 03:12:59;;;;;;;71.77;38.23;;;;;;;4.32;78.17;94557.75;1664940;85;21105;-49
2021/12/31 03:15:26;;;;;;;54.08;32.53;;;;;;;4.37;77.96;94564.09;1679152;83;21951;-49
2021/12/31 03:17:53;;;;;;;69.25;31.73;;;;;;;4.37;77.66;94561.95;1717600;82;21537;-49
2021/12/31 03:20:36;;;;;;;74.05;32.65;;;;;;;4.32;77.59;94560.48;1712501;81;21309;-49
2021/12/31 03:22:54;;;;;;;66.42;29.77;;;;;;;4.32;77.56;94556.97;1715344;82;21035;-49
2021/12/31 03:25:21;;;;;;;78.12;32.95;;;;;;;4.30;77.39;94556.04;1715032;82;20938;-49
2021/12/31 03:27:47;;;;;;;50.45;22.58;;;;;;;4.34;77.61;94549.16;1670258;81;21143;-48
2021/12/31 03:30:16;;;;;;;18.02;10.60;;;;;;;4.43;77.30;94550.18;1695899;82;21598;-49
2021/12/31 03:32:44;;;;;;;44.15;22.37;;;;;;;4.46;77.12;94554.80;1714848;82;21024;-48
2021/12/31 03:35:11;;;;;;;38.85;23.95;;;;;;;4.49;77.11;94554.00;1713212;82;21755;-49
2021/12/31 03:37:39;;;;;;;35.75;21.52;;;;;;;4.52;76.97;94553.17;1713640;81;21533;-49
2021/12/31 03:40:09;;;;;;;33.15;21.55;;;;;;;4.53;77.05;94553.34;1711670;82;21188;-49
2021/12/31 03:42:36;;;;;;;45.92;24.60;;;;;;;4.56;77.06;94551.73;1710676;82;20994;-48
2021/12/31 03:45:10;;;;;;;39.55;19.90;;;;;;;4.60;76.86;94566.84;1698191;83;21463;-49
2021/12/31 03:47:37;;;;;;;43.65;25.02;;;;;;;4.61;76.93;94561.57;1700554;81;21022;-48
2021/12/31 03:50:05;;;;;;;215.20;91.00;;;;;;;4.63;76.73;94546.94;1707382;82;20990;-50
2021/12/31 03:52:38;;;;;;;319.20;138.03;;;;;;;4.65;76.64;94552.77;1717105;82;21947;-49
2021/12/31 03:55:06;;;;;;;138.62;69.77;;;;;;;4.65;76.84;94546.54;1713393;82;20990;-49
2021/12/31 03:57:36;;;;;;;84.45;44.60;;;;;;;4.67;76.56;94535.41;1707192;82;20962;-49
2021/12/31 04:00:06;;;;;;;70.00;34.95;;;;;;;4.60;76.56;94523.26;1714374;82;21064;-48
2021/12/31 04:02:35;;;;;;;42.88;24.02;;;;;;;4.58;76.68;94519.42;1705614;82;21011;-49
2021/12/31 04:05:01;;;;;;;37.35;22.55;;;;;;;4.52;76.96;94520.48;1716178;82;21809;-48
2021/12/31 04:07:29;;;;;;;104.35;47.98;;;;;;;4.55;77.04;94525.09;1731439;82;21062;-48
2021/12/31 04:09:57;;;;;;;118.22;57.40;;;;;;;4.60;76.98;94527.34;1728817;82;21035;-49
2021/12/31 04:12:26;;;;;;;78.50;39.95;;;;;;;4.67;77.19;94527.24;1731897;82;21448;-49
2021/12/31 04:14:53;;;;;;;51.98;33.08;;;;;;;4.70;76.79;94527.77;1692907;84;20964;-50
2021/12/31 04:17:20;;;;;;;48.52;28.47;;;;;;;4.67;76.66;94524.52;1715214;82;21281;-49
2021/12/31 04:19:54;;;;;;;35.75;23.35;;;;;;;4.64;76.76;94525.93;1702996;82;21046;-50
2021/12/31 04:22:21;;;;;;;34.50;21.23;;;;;;;4.56;76.85;94517.10;1698462;83;21006;-49
2021/12/31 04:27:16;;;;;;;39.08;23.87;;;;;;;4.50;77.20;94517.41;1713415;83;20995;-49
2021/12/31 04:29:51;;;;;;;40.28;24.65;;;;;;;4.56;77.59;94521.77;1683105;83;21891;-49
2021/12/31 04:32:14;;;;;;;30.52;18.40;;;;;;;4.56;77.56;94522.55;1714704;83;21224;-50
2021/12/31 04:34:41;;;;;;;27.75;18.30;;;;;;;4.55;77.44;94526.45;1698012;83;21502;-49
2021/12/31 04:37:07;;;;;;;37.33;22.98;;;;;;;4.55;77.55;94540.66;1712464;83;21208;-49
2021/12/31 04:39:36;;;;;;;36.75;22.32;;;;;;;4.47;77.41;94529.13;1715303;82;21419;-50
2021/12/31 04:42:06;;;;;;;34.50;20.10;;;;;;;4.47;77.75;94518.23;1715259;82;21521;-49
2021/12/31 04:44:37;;;;;;;28.38;19.40;;;;;;;4.56;78.02;94523.91;1716195;82;20986;-48
2021/12/31 04:47:07;;;;;;;36.20;22.50;;;;;;;4.61;77.57;94530.24;1711993;82;21227;-48
2021/12/31 04:49:33;;;;;;;60.85;33.58;;;;;;;4.61;77.79;94516.62;1717638;83;21113;-48
2021/12/31 04:52:01;;;;;;;58.92;28.15;;;;;;;4.59;77.51;94528.52;1723846;82;21524;-49
2021/12/31 04:54:28;;;;;;;33.15;18.65;;;;;;;4.59;77.94;94531.25;1713284;83;21333;-49
2021/12/31 04:56:58;;;;;;;30.12;17.98;;;;;;;4.66;77.85;94534.45;1703093;83;21102;-49
2021/12/31 04:59:25;;;;;;;37.88;22.58;;;;;;;4.70;77.91;94530.50;1699833;82;21006;-49
2021/12/31 05:01:52;;;;;;;55.43;32.00;;;;;;;4.78;77.64;94544.77;1711860;83;20981;-50
2021/12/31 05:04:18;;;;;;;25.43;17.75;;;;;;;4.79;77.35;94529.96;1713668;83;21001;-49
2021/12/31 05:06:47;;;;;;;41.42;26.52;;;;;;;4.82;77.19;94531.85;1654093;83;21609;-49
2021/12/31 05:09:14;;;;;;;30.60;19.85;;;;;;;4.81;77.22;94538.48;1685042;83;20990;-49
2021/12/31 05:11:42;;;;;;;40.70;23.95;;;;;;;4.84;77.05;94543.11;1700300;83;21541;-50
2021/12/31 05:14:11;;;;;;;46.80;30.15;;;;;;;4.83;77.14;94543.68;1702850;83;21049;-50
2021/12/31 05:16:40;;;;;;;44.23;28.95;;;;;;;4.85;76.94;94533.16;1682853;83;21047;-49
2021/12/31 05:19:07;;;;;;;39.75;23.02;;;;;;;4.83;76.99;94539.59;1685390;83;21226;-50
2021/12/31 05:21:34;;;;;;;33.75;21.57;;;;;;;4.82;77.03;94535.94;1689615;83;21003;-50
2021/12/31 05:24:01;;;;;;;30.05;19.12;;;;;;;4.86;77.16;94541.52;1675768;83;20968;-51
2021/12/31 05:26:27;;;;;;;44.98;23.90;;;;;;;4.88;76.83;94540.50;1689702;83;21065;-51
2021/12/31 05:28:56;;;;;;;49.00;25.23;;;;;;;4.89;76.99;94550.22;1702486;83;21587;-49
2021/12/31 05:31:26;;;;;;;75.00;43.15;;;;;;;4.93;77.17;94549.56;1693138;83;21147;-50
2021/12/31 05:33:53;;;;;;;44.77;26.02;;;;;;;4.98;76.88;94555.13;1693823;83;21201;-50
2021/12/31 05:36:20;;;;;;;32.20;21.90;;;;;;;4.99;76.92;94554.70;1691898;83;21013;-51
2021/12/31 05:38:46;;;;;;;18.73;12.58;;;;;;;5.04;76.80;94544.70;1688168;83;21566;-53
2021/12/31 05:41:13;;;;;;;16.37;11.60;;;;;;;5.07;76.44;94556.71;1677819;83;21099;-53
2021/12/31 05:43:40;;;;;;;13.93;8.90;;;;;;;5.08;76.31;94550.86;1682954;83;21151;-52
2021/12/31 05:46:07;;;;;;;16.35;10.50;;;;;;;5.13;76.33;94558.55;1676899;83;21004;-50
2021/12/31 05:48:34;;;;;;;20.15;11.40;;;;;;;5.22;76.11;94554.70;1711497;82;21530;-50
2021/12/31 05:51:00;;;;;;;15.13;8.73;;;;;;;5.30;75.87;94549.28;1712110;82;20994;-49
2021/12/31 05:53:27;;;;;;;14.35;9.13;;;;;;;5.36;75.52;94546.23;1708429;83;21030;-49
2021/12/31 05:55:54;;;;;;;12.50;8.10;;;;;;;5.37;75.26;94551.86;1710984;83;21096;-48
2021/12/31 05:58:21;;;;;;;12.93;8.48;;;;;;;5.33;75.14;94542.98;1684920;83;21051;-48
2021/12/31 06:00:48;;;;;;;18.60;12.03;;;;;;;5.31;75.04;94548.88;1657807;85;21124;-48
2021/12/31 06:03:15;;;;;;;20.27;12.18;;;;;;;5.30;75.18;94548.70;1660699;85;21473;-48
2021/12/31 06:05:42;;;;;;;20.65;12.53;;;;;;;5.31;75.44;94557.63;1670233;85;21023;-49
2021/12/31 06:08:08;;;;;;;18.35;10.63;;;;;;;5.34;75.51;94560.88;1665941;85;21105;-48
2021/12/31 06:10:39;;;;;;;53.45;27.30;;;;;;;5.41;75.51;94556.68;1666109;84;21058;-48
2021/12/31 06:13:07;;;;;;;91.15;47.95;;;;;;;5.49;75.14;94571.13;1668421;84;21038;-48
2021/12/31 06:15:34;;;;;;;142.57;65.30;;;;;;;5.49;75.38;94568.98;1663068;85;21434;-48
2021/12/31 06:18:01;;;;;;;70.65;34.75;;;;;;;5.52;75.33;94569.50;1699761;82;21092;-49
2021/12/31 06:20:28;;;;;;;73.40;37.55;;;;;;;5.57;75.31;94573.13;1712221;83;21985;-50
2021/12/31 06:22:58;;;;;;;59.38;28.80;;;;;;;5.65;75.18;94575.89;1708140;83;21086;-49
2021/12/31 06:25:28;;;;;;;37.38;19.27;;;;;;;5.70;75.33;94577.54;1712998;82;21481;-49
2021/12/31 06:27:56;;;;;;;21.57;15.35;;;;;;;5.75;75.30;94583.86;1706515;83;21508;-48
2021/12/31 06:30:23;;;;;;;23.35;13.40;;;;;;;5.73;75.11;94580.00;1677374;82;21007;-48
2021/12/31 06:32:50;;;;;;;24.25;15.85;;;;;;;5.66;75.22;94584.25;1730483;82;21183;-48
2021/12/31 06:35:19;;;;;;;18.55;12.10;;;;;;;5.62;75.52;94583.55;1714257;81;21028;-49
2021/12/31 06:37:48;;;;;;;15.05;10.95;;;;;;;5.62;75.76;94591.13;1697367;83;21033;-54
2021/12/31 06:40:15;;;;;;;9.08;7.62;;;;;;;5.66;75.73;94595.16;1698715;83;21485;-49
2021/12/31 06:42:42;;;;;;;25.30;17.90;;;;;;;5.65;75.79;94601.23;1707416;83;21001;-48
2021/12/31 06:45:14;;;;;;;11.28;8.40;;;;;;;5.60;75.69;94604.42;1680716;83;21225;-49
2021/12/31 06:47:41;;;;;;;36.30;21.90;;;;;;;5.55;75.84;94611.73;1705985;83;21558;-49
2021/12/31 06:50:09;;;;;;;21.68;12.13;;;;;;;5.56;76.10;94612.48;1676740;83;21094;-49
2021/12/31 06:52:43;;;;;;;12.45;9.33;;;;;;;5.58;75.96;94599.98;1675491;83;21042;-49
2021/12/31 06:55:10;;;;;;;17.65;11.70;;;;;;;5.57;75.81;94597.69;1692625;82;21426;-50
2021/12/31 06:57:37;;;;;;;31.00;21.57;;;;;;;5.52;75.69;94598.15;1707550;82;22358;-51
2021/12/31 07:00:06;;;;;;;27.98;18.50;;;;;;;5.46;75.91;94601.20;1709423;82;21022;-50
2021/12/31 07:02:36;;;;;;;12.13;9.13;;;;;;;5.51;76.15;94595.25;1671922;83;22360;-49
2021/12/31 07:05:04;;;;;;;20.82;15.53;;;;;;;5.56;76.01;94601.58;1685388;83;21059;-50
2021/12/31 07:07:31;;;;;;;18.48;11.73;;;;;;;5.56;75.90;94608.39;1700968;81;21102;-50
2021/12/31 07:09:58;;;;;;;11.70;8.40;;;;;;;5.51;75.95;94600.70;1680708;83;21419;-49
2021/12/31 07:12:25;;;;;;;24.05;18.15;;;;;;;5.46;76.22;94602.56;1701601;82;20974;-48
2021/12/31 07:14:53;;;;;;;12.40;9.45;;;;;;;5.47;76.36;94600.01;1695799;82;21040;-49
2021/12/31 07:17:20;;;;;;;27.62;18.85;;;;;;;5.49;76.53;94600.35;1696460;82;21052;-55
2021/12/31 07:19:47;;;;;;;17.05;11.68;;;;;;;5.52;76.48;94606.34;1699862;82;21083;-51
2021/12/31 07:22:13;;;;;;;58.73;32.93;;;;;;;5.56;76.54;94607.03;1703528;82;22373;-50
2021/12/31 07:24:40;;;;;;;39.00;20.82;;;;;;;5.62;76.37;94605.37;1686147;82;21611;-51
2021/12/31 07:27:08;;;;;;;21.40;13.32;;;;;;;5.68;76.33;94611.88;1692379;83;21069;-49
2021/12/31 07:29:37;;;;;;;15.65;10.43;;;;;;;5.76;76.05;94609.21;1688906;82;22185;-50
2021/12/31 07:32:05;;;;;;;13.65;8.90;;;;;;;5.78;75.80;94607.61;1671623;82;21201;-51
2021/12/31 07:34:33;;;;;;;11.05;8.48;;;;;;;5.73;75.66;94610.81;1684229;82;21284;-49
2021/12/31 07:37:03;;;;;;;11.95;9.08;;;;;;;5.71;75.65;94608.31;1703217;82;20944;-50
2021/12/31 07:39:32;;;;;;;20.02;11.68;;;;;;;5.72;75.56;94603.03;1681089;82;21097;-49
2021/12/31 07:41:58;;;;;;;9.30;8.10;;;;;;;5.74;75.44;94619.17;1688580;82;21104;-53
2021/12/31 07:44:26;;;;;;;16.00;10.35;;;;;;;5.79;74.98;94616.59;1697927;82;21063;-51
2021/12/31 07:46:53;;;;;;;8.83;7.90;;;;;;;5.78;75.10;94609.56;1685190;83;21150;-48
2021/12/31 07:49:19;;;;;;;7.50;6.65;;;;;;;5.79;74.85;94615.22;1667991;81;21044;-49
2021/12/31 07:51:46;;;;;;;6.97;6.20;;;;;;;5.75;74.79;94611.77;1676156;82;21111;-49
2021/12/31 07:54:15;;;;;;;17.37;11.22;;;;;;;5.76;74.74;94618.16;1687788;82;21010;-50
2021/12/31 07:56:44;;;;;;;8.50;6.10;;;;;;;5.80;74.49;94612.66;1685578;82;21582;-49
2021/12/31 07:59:11;;;;;;;7.87;6.55;;;;;;;5.81;74.00;94615.57;1689317;82;21066;-53
2021/12/31 08:01:38;;;;;;;9.70;8.45;;;;;;;5.78;73.97;94608.98;1675847;82;21051;-51
2021/12/31 08:04:06;;;;;;;17.02;14.10;;;;;;;5.77;74.07;94607.41;1639171;82;37488;-49
2021/12/31 08:06:33;;;;;;;9.00;7.72;;;;;;;5.81;73.92;94612.23;1625969;86;21071;-49
2021/12/31 08:08:59;;;;;;;7.95;6.50;;;;;;;5.85;73.78;94608.08;1609156;86;21052;-48
2021/12/31 08:11:26;;;;;;;6.47;5.67;;;;;;;5.92;73.70;94623.72;1614078;86;21164;-49
2021/12/31 08:13:55;;;;;;;6.60;5.92;;;;;;;6.03;73.57;94622.14;1578980;87;21530;-52
2021/12/31 08:16:23;;;;;;;8.90;7.20;;;;;;;6.09;73.30;94632.16;1606620;86;21217;-49
2021/12/31 08:18:51;;;;;;;11.63;7.90;;;;;;;6.09;73.07;94632.73;1620699;87;21043;-50
2021/12/31 08:21:17;;;;;;;17.98;11.60;;;;;;;6.06;72.95;94629.48;1619231;86;21148;-52
2021/12/31 08:23:44;;;;;;;29.65;15.48;;;;;;;6.04;72.96;94629.14;1614933;86;21163;-48
2021/12/31 08:26:13;;;;;;;19.90;11.33;;;;;;;6.03;72.92;94628.97;1621141;86;21499;-52
2021/12/31 08:28:40;;;;;;;24.32;14.93;;;;;;;6.01;73.09;94634.08;1590462;88;21078;-55
2021/12/31 08:31:06;;;;;;;25.70;14.80;;;;;;;5.97;73.32;94639.60;1610484;87;21166;-51
2021/12/31 08:33:35;;;;;;;21.77;14.03;;;;;;;5.97;73.32;94638.23;1612832;87;21113;-50
2021/12/31 08:36:04;;;;;;;38.53;21.62;;;;;;;5.95;73.54;94637.14;1618134;86;21176;-51
2021/12/31 08:38:31;;;;;;;25.72;15.50;;;;;;;5.91;73.86;94632.31;1613980;86;21230;-50
2021/12/31 08:41:01;;;;;;;20.85;14.03;;;;;;;5.98;73.95;94629.47;1621405;86;21035;-50
2021/12/31 08:43:28;;;;;;;11.20;8.08;;;;;;;6.07;73.89;94635.13;1592122;88;21063;-48
2021/12/31 08:45:58;;;;;;;18.02;13.25;;;;;;;6.13;73.88;94645.14;1577668;89;21614;-48
2021/12/31 08:48:29;;;;;;;11.33;8.58;;;;;;;6.17;73.94;94636.27;1582195;89;21122;-48
2021/12/31 08:50:56;;;;;;;11.22;8.78;;;;;;;6.18;73.95;94637.05;1624741;86;21590;-48
2021/12/31 08:53:23;;;;;;;14.18;10.53;;;;;;;6.23;74.15;94629.72;1616616;86;21511;-50
2021/12/31 08:55:53;;;;;;;16.90;12.00;;;;;;;6.31;74.02;94635.23;1608467;87;21316;-54
2021/12/31 08:58:20;;;;;;;26.65;19.23;;;;;;;6.39;74.04;94639.34;1614053;86;21073;-50
2021/12/31 09:00:47;;;;;;;16.93;12.20;;;;;;;6.53;73.74;94643.14;1583400;89;21070;-50
2021/12/31 09:03:14;;;;;;;17.55;12.58;;;;;;;6.63;73.33;94643.48;1581485;88;21038;-52
2021/12/31 09:05:41;;;;;;;14.83;9.65;;;;;;;6.65;73.25;94626.06;1589404;88;21005;-51
2021/12/31 09:08:10;;;;;;;11.60;8.95;;;;;;;6.63;73.02;94629.23;1617428;86;21980;-50
2021/12/31 09:10:38;;;;;;;14.13;10.35;;;;;;;6.62;73.12;94626.92;1614917;87;21085;-52
2021/12/31 09:13:05;;;;;;;13.18;10.82;;;;;;;6.59;73.08;94618.20;1612662;87;21094;-50
2021/12/31 09:15:33;;;;;;;19.65;12.63;;;;;;;6.52;73.29;94618.38;1620570;87;21558;-50
2021/12/31 09:18:02;;;;;;;19.95;14.87;;;;;;;6.49;73.58;94625.45;1618861;87;21489;-53
2021/12/31 09:20:29;;;;;;;25.32;20.70;;;;;;;6.53;73.43;94614.45;1618784;87;21065;-54
2021/12/31 09:22:57;;;;;;;21.77;15.98;;;;;;;6.51;73.55;94621.69;1611676;87;21061;-53
2021/12/31 09:25:26;;;;;;;20.55;14.55;;;;;;;6.57;73.54;94624.11;1616942;86;21146;-57
2021/12/31 09:27:52;;;;;;;11.83;9.55;;;;;;;6.70;73.42;94616.02;1614995;86;21538;-55
2021/12/31 09:30:22;;;;;;;11.50;8.40;;;;;;;6.79;73.17;94615.59;1623539;86;21065;-53
2021/12/31 09:32:50;;;;;;;12.03;8.23;;;;;;;6.83;72.85;94614.91;1617997;86;21125;-49
2021/12/31 09:35:17;;;;;;;16.48;9.73;;;;;;;6.77;72.97;94615.84;1628472;86;21090;-51
2021/12/31 09:37:48;;;;;;;17.82;12.37;;;;;;;6.74;73.12;94608.50;1618606;86;21156;-52
2021/12/31 09:40:18;;;;;;;18.00;14.65;;;;;;;6.77;73.12;94622.09;1617683;86;21093;-51
2021/12/31 09:43:08;;;;;;;19.67;12.85;;;;;;;6.82;73.06;94616.70;1614701;87;21561;-51
2021/12/31 09:45:37;;;;;;;15.93;10.60;;;;;;;6.89;73.03;94619.28;1617493;86;21014;-51
2021/12/31 09:48:09;;;;;;;17.45;11.97;;;;;;;6.95;72.77;94614.25;1609668;86;21106;-50
2021/12/31 09:50:39;;;;;;;12.15;9.25;;;;;;;6.90;72.77;94598.33;1596147;87;21331;-50
2021/12/31 09:53:07;;;;;;;11.60;9.18;;;;;;;6.95;72.75;94592.95;1599713;87;21574;-50
2021/12/31 09:55:44;;;;;;;11.25;8.25;;;;;;;6.96;72.72;94587.66;1608548;87;21018;-49
2021/12/31 09:58:13;;;;;;;11.60;8.58;;;;;;;7.00;72.78;94584.23;1619006;86;21025;-51
2021/12/31 10:00:51;;;;;;;10.63;8.80;;;;;;;7.13;72.72;94599.55;1616668;86;21056;-52
2021/12/31 10:03:29;;;;;;;12.15;8.75;;;;;;;7.22;72.50;94597.75;1626943;86;21865;-48
2021/12/31 10:06:07;;;;;;;20.50;14.43;;;;;;;7.33;72.26;94591.39;1611268;86;21067;-49
2021/12/31 10:08:43;;;;;;;36.68;25.75;;;;;;;7.43;71.86;94595.83;1626275;87;22390;-49
2021/12/31 10:11:17;;;;;;;28.10;21.23;;;;;;;7.57;71.52;94599.58;1573289;89;21067;-48
2021/12/31 10:13:54;;;;;;;;;;;;;;;7.72;71.13;94595.23;1574529;90;21538;-48
2021/12/31 10:16:30;;;;;;;19.23;12.05;;;;;;;7.81;70.37;94600.09;1589225;88;20472;-50
2021/12/31 10:19:20;;;;;;;15.70;10.60;;;;;;;7.76;69.81;94598.67;1630877;86;21118;-50
2021/12/31 10:21:51;;;;;;;29.75;16.75;;;;;;;7.68;69.96;94600.66;1623276;86;21025;-51
2021/12/31 10:24:36;;;;;;;21.52;14.45;;;;;;;7.65;70.08;94595.44;1611588;87;21670;-52
2021/12/31 10:27:20;;;;;;;19.52;13.00;;;;;;;7.74;69.93;94577.77;1620450;86;21066;-52
2021/12/31 10:30:03;;;;;;;18.02;13.53;;;;;;;7.84;69.86;94575.35;1617344;86;21154;-53
2021/12/31 10:32:36;;;;;;;15.78;11.08;;;;;;;8.00;69.45;94584.88;1619067;86;21250;-52
2021/12/31 10:35:13;;;;;;;17.35;11.28;;;;;;;8.22;69.00;94574.87;1610306;86;20997;-51
2021/12/31 10:37:56;;;;;;;14.87;10.08;;;;;;;8.36;68.46;94563.50;1608708;86;21609;-51
2021/12/31 10:40:39;;;;;;;11.90;8.35;;;;;;;8.47;67.73;94570.79;1617767;86;20990;-52
2021/12/31 10:43:21;;;;;;;15.10;9.35;;;;;;;8.50;67.09;94564.45;1596627;89;21072;-51
2021/12/31 10:46:09;;;;;;;16.80;11.33;;;;;;;8.47;67.05;94565.30;1608065;87;21011;-56
2021/12/31 10:48:51;;;;;;;20.17;14.70;;;;;;;8.48;67.22;94561.39;1613594;88;21050;-50
2021/12/31 10:51:41;;;;;;;14.05;10.35;;;;;;;8.57;67.25;94564.23;1600680;87;21038;-52
2021/12/31 10:54:32;;;;;;;9.65;7.75;;;;;;;8.64;67.07;94557.77;1577400;89;21546;-51
2021/12/31 10:57:00;;;;;;;11.60;10.25;;;;;;;8.70;66.41;94545.81;1591503;88;21417;-51
2021/12/31 10:59:36;;;;;;;12.13;9.45;;;;;;;8.61;66.02;94545.69;1610951;86;21066;-51
2021/12/31 11:01:59;;;;;;;10.00;8.65;;;;;;;8.53;65.99;94547.12;1607850;87;21547;-50
2021/12/31 11:04:28;;;;;;;12.82;9.58;;;;;;;8.47;65.99;94546.12;1609818;89;21501;-48
2021/12/31 11:06:56;;;;;;;14.45;10.30;;;;;;;8.49;66.25;94538.84;1611411;87;21074;-50
2021/12/31 11:09:25;;;;;;;32.65;24.47;;;;;;;8.54;66.16;94539.06;1620519;87;21865;-50
2021/12/31 11:11:52;;;;;;;13.83;10.43;;;;;;;8.66;66.02;94541.64;1628986;87;21499;-50
2021/12/31 11:14:19;;;;;;;17.75;13.00;;;;;;;8.78;65.57;94533.39;1622543;87;21050;-50
2021/12/31 11:16:46;;;;;;;21.37;14.40;;;;;;;8.93;65.63;94538.59;1581530;88;21043;-56
2021/12/31 11:19:13;;;;;;;43.00;28.73;;;;;;;9.16;64.67;94530.77;1591822;90;21011;-50
2021/12/31 11:21:43;;;;;;;37.15;23.98;;;;;;;9.20;64.47;94533.37;1571345;90;21173;-51
2021/12/31 11:24:31;;;;;;;21.20;14.70;;;;;;;9.24;64.37;94528.55;1590580;89;21047;-51
2021/12/31 11:26:59;;;;;;;22.82;16.37;;;;;;;9.21;64.37;94535.68;1594377;88;21046;-50
2021/12/31 11:29:39;;;;;;;19.95;13.60;;;;;;;9.15;64.29;94529.82;1561127;91;21566;-51
2021/12/31 11:32:07;;;;;;;16.00;11.05;;;;;;;8.98;64.21;94529.20;1560753;91;21290;-50
2021/12/31 11:34:37;;;;;;;16.50;12.43;;;;;;;8.72;64.89;94539.28;1616883;87;21945;-51
2021/12/31 11:37:04;;;;;;;19.62;14.00;;;;;;;8.51;65.36;94534.47;1612048;87;21062;-55
2021/12/31 11:39:40;;;;;;;19.60;12.50;;;;;;;8.29;66.03;94542.39;1601803;87;21101;-49